createdAt,value
2022-08-10T00:00:20.229Z,18.20
2022-08-10T00:03:23.640Z,18.20
2022-08-10T00:06:21.022Z,18.20
2022-08-10T00:08:59.015Z,18.20
2022-08-10T00:11:42.394Z,18.10
2022-08-10T00:14:20.005Z,18.00
2022-08-10T00:16:49.529Z,18.10
2022-08-10T00:19:18.301Z,18.10
2022-08-10T00:25:06.817Z,18.10
2022-08-10T00:27:51.644Z,18.00
2022-08-10T00:30:48.816Z,18.00
2022-08-10T00:40:37.189Z,17.80
2022-08-10T00:43:15.787Z,17.80
2022-08-10T00:49:57.048Z,17.80
2022-08-10T01:02:50.193Z,17.80
2022-08-10T01:05:54.320Z,17.70
2022-08-10T01:09:00.267Z,17.70
2022-08-10T01:11:42.342Z,17.70
2022-08-10T01:15:03.166Z,17.70
2022-08-10T01:17:50.369Z,17.70
2022-08-10T01:20:59.469Z,17.70
2022-08-10T01:25:14.772Z,17.50
2022-08-10T01:27:56.893Z,17.40
2022-08-10T01:30:30.799Z,17.30
2022-08-10T01:33:06.762Z,17.40
2022-08-10T01:35:40.944Z,17.30
2022-08-10T01:38:15.776Z,17.30
2022-08-10T01:40:53.882Z,17.30
2022-08-10T01:43:23.775Z,17.40
2022-08-10T01:46:00.498Z,17.40
2022-08-10T01:48:35.822Z,17.40
2022-08-10T01:51:12.780Z,17.40
2022-08-10T01:53:47.214Z,17.40
2022-08-10T01:56:18.147Z,17.40
2022-08-10T01:58:50.795Z,17.40
2022-08-10T02:01:25.614Z,17.40
2022-08-10T02:04:03.997Z,17.30
2022-08-10T02:06:44.547Z,17.40
2022-08-10T02:09:40.998Z,17.30
2022-08-10T02:12:15.889Z,17.40
2022-08-10T02:14:53.807Z,17.40
2022-08-10T02:20:53.026Z,17.40
2022-08-10T02:23:29.381Z,17.30
2022-08-10T02:26:06.670Z,17.30
2022-08-10T02:28:39.767Z,17.30
2022-08-10T02:31:16.979Z,17.20
2022-08-10T02:33:57.268Z,17.20
2022-08-10T02:36:30.739Z,17.20
2022-08-10T02:39:02.032Z,17.20
2022-08-10T02:45:15.316Z,17.10
2022-08-10T02:45:21.099Z,17.00
2022-08-10T02:47:26.426Z,17.00
2022-08-10T02:50:04.898Z,16.90
2022-08-10T02:52:39.849Z,16.90
2022-08-10T02:55:17.829Z,16.90
2022-08-10T02:58:12.579Z,16.90
2022-08-10T03:00:47.895Z,16.90
2022-08-10T03:03:21.805Z,16.80
2022-08-10T03:05:55.822Z,16.80
2022-08-10T03:08:29.538Z,16.70
2022-08-10T03:11:03.987Z,16.70
2022-08-10T03:13:33.241Z,16.70
2022-08-10T03:16:03.799Z,16.70
2022-08-10T03:18:33.752Z,16.70
2022-08-10T03:21:11.707Z,16.70
2022-08-10T03:23:42.940Z,16.70
2022-08-10T03:26:17.546Z,16.70
2022-08-10T03:28:49.816Z,16.70
2022-08-10T03:31:18.867Z,16.80
2022-08-10T03:33:48.833Z,16.70
2022-08-10T03:36:42.532Z,16.70
2022-08-10T03:39:07.854Z,16.60
2022-08-10T03:41:41.041Z,16.60
2022-08-10T03:44:21.921Z,16.60
2022-08-10T03:46:51.844Z,16.60
2022-08-10T03:49:21.881Z,16.60
2022-08-10T03:51:55.672Z,16.60
2022-08-10T03:54:28.737Z,16.60
2022-08-10T03:56:57.693Z,16.60
2022-08-10T03:59:31.768Z,16.60
2022-08-10T04:02:43.942Z,16.70
2022-08-10T04:04:50.524Z,16.70
2022-08-10T04:07:20.095Z,16.60
2022-08-10T04:09:54.916Z,16.70
2022-08-10T04:12:24.201Z,16.70
2022-08-10T04:14:53.540Z,16.80
2022-08-10T04:17:56.888Z,16.80
2022-08-10T04:20:20.890Z,16.80
2022-08-10T04:22:56.778Z,16.90
2022-08-10T04:25:29.015Z,16.90
2022-08-10T04:27:57.673Z,17.00
2022-08-10T04:30:28.348Z,17.00
2022-08-10T04:33:00.772Z,17.00
2022-08-10T04:35:30.858Z,17.10
2022-08-10T04:38:01.962Z,17.10
2022-08-10T04:40:33.312Z,17.20
2022-08-10T04:43:09.032Z,17.20
2022-08-10T04:45:50.240Z,17.20
2022-08-10T04:48:41.015Z,17.30
2022-08-10T04:51:19.505Z,17.30
2022-08-10T04:54:02.618Z,17.30
2022-08-10T04:56:36.680Z,17.40
2022-08-10T04:59:06.234Z,17.40
2022-08-10T05:02:27.870Z,17.50
2022-08-10T05:04:37.448Z,17.50
2022-08-10T05:07:16.082Z,17.60
2022-08-10T05:10:02.311Z,17.60
2022-08-10T05:12:36.275Z,17.70
2022-08-10T05:15:06.558Z,17.80
2022-08-10T05:17:37.702Z,17.80
2022-08-10T05:20:08.273Z,17.80
2022-08-10T05:22:39.149Z,17.90
2022-08-10T05:25:11.970Z,17.90
2022-08-10T05:27:40.787Z,17.90
2022-08-10T05:30:11.487Z,18.00
2022-08-10T05:32:56.164Z,18.00
2022-08-10T05:35:52.804Z,18.00
2022-08-10T05:38:18.923Z,18.10
2022-08-10T05:40:50.952Z,18.10
2022-08-10T05:43:20.462Z,18.10
2022-08-10T05:46:19.743Z,18.10
2022-08-10T05:48:42.405Z,18.20
2022-08-10T05:51:30.943Z,18.30
2022-08-10T05:54:04.917Z,18.40
2022-08-10T05:56:56.299Z,18.40
2022-08-10T06:00:32.956Z,18.50
2022-08-10T06:02:31.876Z,18.50
2022-08-10T06:05:08.912Z,18.60
2022-08-10T06:07:41.924Z,18.60
2022-08-10T06:10:31.657Z,18.70
2022-08-10T06:13:30.868Z,18.70
2022-08-10T06:16:06.922Z,18.80
2022-08-10T06:18:35.836Z,18.80
2022-08-10T06:21:04.989Z,18.80
2022-08-10T06:23:38.293Z,18.80
2022-08-10T06:26:14.025Z,18.80
2022-08-10T06:29:03.357Z,18.80
2022-08-10T06:31:48.113Z,18.80
2022-08-10T06:34:22.026Z,18.90
2022-08-10T06:36:54.395Z,18.90
2022-08-10T06:39:39.344Z,19.00
2022-08-10T06:42:18.023Z,19.00
2022-08-10T06:44:54.536Z,19.00
2022-08-10T06:47:29.952Z,19.00
2022-08-10T06:50:08.816Z,19.10
2022-08-10T06:52:39.919Z,19.10
2022-08-10T06:55:16.743Z,19.10
2022-08-10T06:57:59.839Z,19.20
2022-08-10T07:00:34.504Z,19.20
2022-08-10T07:03:12.542Z,19.30
2022-08-10T07:05:46.835Z,19.40
2022-08-10T07:08:26.270Z,19.40
2022-08-10T07:10:55.543Z,19.50
2022-08-10T07:14:17.237Z,19.50
2022-08-10T07:16:15.859Z,19.60
2022-08-10T07:18:45.960Z,19.70
2022-08-10T07:21:15.999Z,19.70
2022-08-10T07:23:58.508Z,19.80
2022-08-10T07:26:30.885Z,19.90
2022-08-10T07:29:00.971Z,19.90
2022-08-10T07:31:54.741Z,20.00
2022-08-10T07:34:29.743Z,20.00
2022-08-10T07:37:02.899Z,20.10
2022-08-10T07:40:03.789Z,20.20
2022-08-10T07:42:31.168Z,20.20
2022-08-10T07:45:06.281Z,20.30
2022-08-10T07:47:53.624Z,20.30
2022-08-10T07:50:26.882Z,20.40
2022-08-10T07:52:59.982Z,20.40
2022-08-10T07:56:04.147Z,20.50
2022-08-10T07:58:30.025Z,20.50
2022-08-10T08:01:01.119Z,20.60
2022-08-10T08:03:33.974Z,20.60
2022-08-10T08:06:05.603Z,20.70
2022-08-10T08:08:46.649Z,20.70
2022-08-10T08:11:26.271Z,20.70
2022-08-10T08:13:59.007Z,20.70
2022-08-10T08:16:28.162Z,20.90
2022-08-10T08:24:06.832Z,20.90
2022-08-10T08:24:42.926Z,20.90
2022-08-10T08:27:15.196Z,21.00
2022-08-10T08:29:47.011Z,21.10
2022-08-10T08:32:19.922Z,21.20
2022-08-10T08:34:53.830Z,21.30
2022-08-10T08:38:32.638Z,21.20
2022-08-10T08:40:23.443Z,21.20
2022-08-10T08:43:27.407Z,21.30
2022-08-10T08:46:28.780Z,21.20
2022-08-10T08:50:07.426Z,21.30
2022-08-10T08:52:35.897Z,21.30
2022-08-10T08:56:04.857Z,21.20
2022-08-10T08:58:26.326Z,21.30
2022-08-10T09:01:05.027Z,21.40
2022-08-10T09:03:55.075Z,21.40
2022-08-10T09:06:51.014Z,21.50
2022-08-10T09:09:46.058Z,21.50
2022-08-10T09:12:33.681Z,21.60
2022-08-10T09:15:06.079Z,21.60
2022-08-10T09:17:41.046Z,21.80
2022-08-10T09:20:13.041Z,21.80
2022-08-10T09:22:48.064Z,21.70
2022-08-10T09:25:20.089Z,21.70
2022-08-10T09:27:52.035Z,21.80
2022-08-10T09:30:32.368Z,21.80
2022-08-10T09:36:22.717Z,21.90
2022-08-10T09:36:25.758Z,21.90
2022-08-10T09:39:09.119Z,21.90
2022-08-10T09:41:58.176Z,21.90
2022-08-10T09:44:57.485Z,22.00
2022-08-10T09:48:00.736Z,22.10
2022-08-10T09:51:05.449Z,22.20
2022-08-10T09:53:31.003Z,22.20
2022-08-10T09:56:22.209Z,22.30
2022-08-10T09:59:59.274Z,22.40
2022-08-10T10:02:10.387Z,22.50
2022-08-10T10:04:49.373Z,22.70
2022-08-10T10:07:29.081Z,22.90
2022-08-10T10:10:03.968Z,23.00
2022-08-10T10:12:44.155Z,23.10
2022-08-10T10:15:36.123Z,23.30
2022-08-10T10:18:28.178Z,23.40
2022-08-10T10:21:04.989Z,23.60
2022-08-10T10:24:05.401Z,23.80
2022-08-10T10:26:43.980Z,23.80
2022-08-10T10:29:58.053Z,23.80
2022-08-10T10:32:23.129Z,23.70
2022-08-10T10:35:04.622Z,23.60
2022-08-10T10:38:01.024Z,23.50
2022-08-10T10:40:34.136Z,23.30
2022-08-10T10:43:09.301Z,23.30
2022-08-10T10:45:50.671Z,23.30
2022-08-10T10:48:29.029Z,23.10
2022-08-10T10:51:10.299Z,23.20
2022-08-10T10:53:48.003Z,23.20
2022-08-10T10:56:26.015Z,23.20
2022-08-10T10:59:33.342Z,23.20
2022-08-10T11:02:06.110Z,23.30
2022-08-10T11:04:47.141Z,23.40
2022-08-10T11:07:23.749Z,23.50
2022-08-10T11:10:31.869Z,23.60
2022-08-10T11:14:26.144Z,23.70
2022-08-10T11:16:08.117Z,23.80
2022-08-10T11:18:56.070Z,24.00
2022-08-10T11:21:40.136Z,24.00
2022-08-10T11:24:47.821Z,24.10
2022-08-10T11:27:21.769Z,24.10
2022-08-10T11:29:58.667Z,24.10
2022-08-10T11:32:38.281Z,24.20
2022-08-10T11:35:18.776Z,24.20
2022-08-10T11:38:31.468Z,24.40
2022-08-10T11:40:56.239Z,24.40
2022-08-10T11:43:29.033Z,24.40
2022-08-10T11:46:27.672Z,24.40
2022-08-10T11:49:05.257Z,24.30
2022-08-10T11:51:46.295Z,24.40
2022-08-10T11:54:27.659Z,24.50
2022-08-10T11:57:02.236Z,24.60
2022-08-10T11:59:58.397Z,24.80
2022-08-10T12:02:32.368Z,24.90
2022-08-10T12:05:08.261Z,25.00
2022-08-10T12:10:01.875Z,25.10
2022-08-10T12:10:40.689Z,25.20
2022-08-10T12:13:13.869Z,25.30
2022-08-10T12:15:54.337Z,25.50
2022-08-10T12:18:29.069Z,25.60
2022-08-10T12:21:04.151Z,25.80
2022-08-10T12:23:39.516Z,25.90
2022-08-10T12:26:16.175Z,26.00
2022-08-10T12:28:56.297Z,26.10
2022-08-10T12:31:28.603Z,26.40
2022-08-10T12:34:10.258Z,26.30
2022-08-10T12:36:43.248Z,26.20
2022-08-10T12:39:18.280Z,25.80
2022-08-10T12:41:54.266Z,25.70
2022-08-10T12:44:41.690Z,25.60
2022-08-10T12:47:22.101Z,25.70
2022-08-10T12:50:31.559Z,25.80
2022-08-10T12:52:54.236Z,26.00
2022-08-10T12:55:23.849Z,26.00
2022-08-10T12:57:58.286Z,26.20
2022-08-10T13:00:33.473Z,26.30
2022-08-10T13:03:03.273Z,26.40
2022-08-10T13:06:02.232Z,26.50
2022-08-10T13:08:48.865Z,26.40
2022-08-10T13:12:34.289Z,26.30
2022-08-10T13:14:24.038Z,26.50
2022-08-10T13:16:57.207Z,26.70
2022-08-10T13:19:55.402Z,26.90
2022-08-10T13:22:24.128Z,27.10
2022-08-10T13:24:57.212Z,27.30
2022-08-10T13:28:00.615Z,27.60
2022-08-10T13:30:33.695Z,27.90
2022-08-10T13:33:08.045Z,28.50
2022-08-10T13:35:38.600Z,29.30
2022-08-10T13:38:10.232Z,30.40
2022-08-10T13:40:41.206Z,31.50
2022-08-10T13:43:12.238Z,33.20
2022-08-10T13:45:49.708Z,34.40
2022-08-10T13:48:24.220Z,35.70
2022-08-10T13:51:01.182Z,36.90
2022-08-10T13:53:39.803Z,37.80
2022-08-10T13:56:14.631Z,38.90
2022-08-10T13:58:44.530Z,39.30
2022-08-10T14:01:20.470Z,39.90
2022-08-10T14:03:51.226Z,39.60
2022-08-10T14:06:30.114Z,38.10
2022-08-10T14:09:02.607Z,37.00
2022-08-10T14:11:32.769Z,35.40
2022-08-10T14:14:09.251Z,33.80
2022-08-10T14:16:45.752Z,32.60
2022-08-10T14:19:18.259Z,31.50
2022-08-10T14:21:46.701Z,30.80
2022-08-10T14:24:23.937Z,30.20
2022-08-10T14:27:01.436Z,29.70
2022-08-10T14:29:30.670Z,28.80
2022-08-10T14:32:02.492Z,28.20
2022-08-10T14:36:16.759Z,27.80
2022-08-10T14:37:37.771Z,27.60
2022-08-10T14:40:15.994Z,27.30
2022-08-10T14:42:50.291Z,27.40
2022-08-10T14:45:24.811Z,28.10
2022-08-10T14:48:00.942Z,29.70
2022-08-10T14:50:33.519Z,31.00
2022-08-10T14:53:09.292Z,32.20
2022-08-10T14:55:58.351Z,32.70
2022-08-10T14:58:35.959Z,32.70
2022-08-10T15:01:08.947Z,31.90
2022-08-10T15:04:00.931Z,31.00
2022-08-10T15:06:35.435Z,30.40
2022-08-10T15:09:19.219Z,29.50
2022-08-10T15:12:13.488Z,28.80
2022-08-10T15:14:45.869Z,28.40
2022-08-10T15:17:18.202Z,27.90
2022-08-10T15:20:02.187Z,27.60
2022-08-10T15:22:38.623Z,27.30
2022-08-10T15:25:19.105Z,27.20
2022-08-10T15:27:58.052Z,27.00
2022-08-10T15:30:39.737Z,26.70
2022-08-10T15:34:02.206Z,26.50
2022-08-10T15:36:41.397Z,26.30
2022-08-10T15:40:08.819Z,26.10
2022-08-10T15:42:08.609Z,25.80
2022-08-10T15:44:40.548Z,25.70
2022-08-10T15:47:16.683Z,25.60
2022-08-10T15:49:53.862Z,25.60
2022-08-10T15:53:00.731Z,25.50
2022-08-10T15:55:43.219Z,25.50
2022-08-10T15:58:13.271Z,25.50
2022-08-10T16:00:50.108Z,25.50
2022-08-10T16:03:26.195Z,25.50
2022-08-10T16:06:01.753Z,25.70
2022-08-10T16:08:56.387Z,25.70
2022-08-10T16:11:40.136Z,26.00
2022-08-10T16:14:13.365Z,26.40
2022-08-10T16:16:45.244Z,26.80
2022-08-10T16:19:24.951Z,27.20
2022-08-10T16:22:33.965Z,27.50
2022-08-10T16:24:58.322Z,27.80
2022-08-10T16:27:30.339Z,28.00
2022-08-10T16:30:02.282Z,28.10
2022-08-10T16:32:34.110Z,28.30
2022-08-10T16:35:08.892Z,28.30
2022-08-10T16:37:57.155Z,28.30
2022-08-10T16:40:30.785Z,28.20
2022-08-10T16:43:03.924Z,28.10
2022-08-10T16:45:38.127Z,27.90
2022-08-10T16:48:11.377Z,27.70
2022-08-10T16:50:45.348Z,27.40
2022-08-10T16:53:17.373Z,27.20
2022-08-10T16:55:50.736Z,26.90
2022-08-10T16:58:26.277Z,26.70
2022-08-10T17:01:02.910Z,26.50
2022-08-10T17:04:08.197Z,26.30
2022-08-10T17:06:34.427Z,26.10
2022-08-10T17:09:07.037Z,25.80
2022-08-10T17:11:46.301Z,25.70
2022-08-10T17:14:15.249Z,25.50
2022-08-10T17:16:45.625Z,25.40
2022-08-10T17:19:16.630Z,25.30
2022-08-10T17:21:52.498Z,25.10
2022-08-10T17:24:25.404Z,25.00
2022-08-10T17:28:03.070Z,24.90
2022-08-10T17:30:02.945Z,24.70
2022-08-10T17:32:44.566Z,24.50
2022-08-10T17:35:16.794Z,24.50
2022-08-10T17:37:50.996Z,24.40
2022-08-10T17:40:23.739Z,24.30
2022-08-10T17:42:57.780Z,24.20
2022-08-10T17:45:46.957Z,24.20
2022-08-10T17:48:27.710Z,24.20
2022-08-10T17:50:56.163Z,24.10
2022-08-10T17:53:29.845Z,24.10
2022-08-10T17:56:00.452Z,24.00
2022-08-10T17:58:31.742Z,23.80
2022-08-10T18:01:38.601Z,23.80
2022-08-10T18:03:53.348Z,23.80
2022-08-10T18:06:27.102Z,23.60
2022-08-10T18:08:57.915Z,23.50
2022-08-10T18:14:25.071Z,23.20
2022-08-10T18:16:56.043Z,23.10
2022-08-10T18:19:27.614Z,23.00
2022-08-10T18:21:56.768Z,22.90
2022-08-10T18:24:25.744Z,22.80
2022-08-10T18:26:56.511Z,22.80
2022-08-10T18:29:31.271Z,22.70
2022-08-10T18:32:02.742Z,22.60
2022-08-10T18:34:32.976Z,22.50
2022-08-10T18:37:02.394Z,22.50
2022-08-10T18:39:34.865Z,22.40
2022-08-10T18:42:11.444Z,22.30
2022-08-10T18:44:50.290Z,22.30
2022-08-10T18:47:29.098Z,22.10
2022-08-10T18:50:07.984Z,22.00
2022-08-10T18:52:39.231Z,21.90
2022-08-10T18:55:23.289Z,21.90
2022-08-10T18:58:30.244Z,21.80
2022-08-10T19:01:31.428Z,21.70
2022-08-10T19:04:15.022Z,21.70
2022-08-10T19:07:16.406Z,21.60
2022-08-10T19:09:51.530Z,21.50
2022-08-10T19:12:45.780Z,21.50
2022-08-10T19:15:22.335Z,21.50
2022-08-10T19:18:07.716Z,21.50
2022-08-10T19:20:42.182Z,21.50
2022-08-10T19:23:19.475Z,21.40
2022-08-10T19:26:41.077Z,21.40
2022-08-10T19:28:52.304Z,21.30
2022-08-10T19:31:44.575Z,21.30
2022-08-10T19:34:32.029Z,21.30
2022-08-10T19:37:09.942Z,21.10
2022-08-10T19:39:54.307Z,21.00
2022-08-10T19:42:31.882Z,21.00
2022-08-10T19:46:01.816Z,21.00
2022-08-10T19:48:13.632Z,21.00
2022-08-10T19:50:48.308Z,21.00
2022-08-10T19:53:31.106Z,20.90
2022-08-10T19:56:33.132Z,20.90
2022-08-10T19:59:10.524Z,20.80
2022-08-10T20:01:54.410Z,20.80
2022-08-10T20:04:32.206Z,20.70
2022-08-10T20:07:15.447Z,20.80
2022-08-10T20:09:50.488Z,20.70
2022-08-10T20:12:35.908Z,20.70
2022-08-10T20:15:12.771Z,20.60
2022-08-10T20:18:13.012Z,20.60
2022-08-10T20:20:49.022Z,20.50
2022-08-10T20:23:22.546Z,20.50
2022-08-10T20:25:56.491Z,20.50
2022-08-10T20:28:35.366Z,20.50
2022-08-10T20:31:11.602Z,20.50
2022-08-10T20:34:01.268Z,20.40
2022-08-10T20:36:33.558Z,20.30
2022-08-10T20:39:15.595Z,20.30
2022-08-10T20:41:56.026Z,20.30
2022-08-10T20:45:03.542Z,20.30
2022-08-10T20:47:54.148Z,20.30
2022-08-10T20:50:31.439Z,20.20
2022-08-10T20:53:04.504Z,20.20
2022-08-10T20:55:47.866Z,20.20
2022-08-10T20:58:48.280Z,20.20
2022-08-10T21:01:29.944Z,20.10
2022-08-10T21:04:29.518Z,20.00
2022-08-10T21:07:57.824Z,19.90
2022-08-10T21:10:26.559Z,19.90
2022-08-10T21:13:16.265Z,19.90
2022-08-10T21:15:56.519Z,19.90
2022-08-10T21:18:43.854Z,19.80
2022-08-10T21:21:41.402Z,19.80
2022-08-10T21:24:19.998Z,19.70
2022-08-10T21:26:57.688Z,19.70
2022-08-10T21:29:42.474Z,19.60
2022-08-10T21:32:41.767Z,19.50
2022-08-10T21:35:36.481Z,19.40
2022-08-10T21:38:10.514Z,19.30
2022-08-10T21:41:17.544Z,19.20
2022-08-10T21:44:08.669Z,19.20
2022-08-10T21:47:06.473Z,19.10
2022-08-10T21:50:04.401Z,19.10
2022-08-10T21:53:04.159Z,19.10
2022-08-10T21:56:03.024Z,19.10
2022-08-10T21:59:03.586Z,19.10
2022-08-10T22:01:55.553Z,19.20
2022-08-10T22:04:51.290Z,19.10
2022-08-10T22:07:41.435Z,19.10
2022-08-10T22:10:31.480Z,19.10
2022-08-10T22:13:21.195Z,19.00
2022-08-10T22:16:12.498Z,19.10
2022-08-10T22:22:28.189Z,19.00
2022-08-10T22:25:27.334Z,18.90
2022-08-10T22:28:18.154Z,18.90
2022-08-10T22:31:26.030Z,19.00
2022-08-10T22:31:30.245Z,18.90
2022-08-10T22:34:34.446Z,18.90
2022-08-10T22:37:37.357Z,18.70
2022-08-10T22:40:30.532Z,18.70
2022-08-10T22:43:36.219Z,18.70
2022-08-10T22:46:26.353Z,18.60
2022-08-10T22:48:59.635Z,18.60
2022-08-10T22:51:39.501Z,18.60
2022-08-10T22:54:34.245Z,18.60
2022-08-10T22:57:21.714Z,18.60
2022-08-10T22:59:56.201Z,18.60
2022-08-10T23:02:33.180Z,18.60
2022-08-10T23:05:11.730Z,18.50
2022-08-10T23:07:48.212Z,18.50
2022-08-10T23:10:22.638Z,18.50
2022-08-10T23:12:57.664Z,18.50
2022-08-10T23:15:46.465Z,18.50
2022-08-10T23:18:38.535Z,18.50
2022-08-10T23:21:14.753Z,18.40
2022-08-10T23:23:45.696Z,18.40
2022-08-10T23:26:23.023Z,18.40
2022-08-10T23:29:05.410Z,18.30
2022-08-10T23:31:54.312Z,18.30
2022-08-10T23:34:33.884Z,18.30
2022-08-10T23:37:04.858Z,18.30
2022-08-10T23:39:37.670Z,18.30
2022-08-10T23:42:10.054Z,18.30
2022-08-10T23:44:44.651Z,18.20
2022-08-10T23:47:16.368Z,18.20
2022-08-10T23:49:50.706Z,18.10
2022-08-10T23:52:21.866Z,18.10
2022-08-10T23:54:58.287Z,18.10
2022-08-10T23:57:29.633Z,18.20
